»·PEaware :: DAL1180 KPHX-KDEN

DAL1180 :: KPHX-KDEN

FLIGHT INFORMATION

Flight Status: Arrived
Operator:
Delta Air Lines
More flights by this operator :: More flights under this callsign
Pilot: Anonymous 10181 (10181)
Aircraft: BOEING 727-200
(B722)
More flights by this aircraft type
Origin: KPHX Phoenix Sky Harbor Intl
United States
Destination: KDEN Denver Intl
United States
More flights between these airports :: More routes between these airports
Route: +SJN9 SJN RSK LARKS2
File this flight plan on PilotEdge
Remarks: Happy Thursday!
Altitude:
(Current/Filed)
31,000ft
Speed:
(Current/Filed)
470kts
Departed: 22-Oct-20 04:40 PM
Arrived: 22-Oct-20 06:00 PM
Distance/Time
Traveled:
522nm/1:20
Distance/Time
To Go:
Arrived

Flight Plot

Page will automatically refresh every two minutes.

Flight plan parsing failed; only flown route is shown


Map Options




Map Legend


Flown Route
Filed Route
Departure Airport
Arrival Airport
Navaid (VOR, NDB)
Fix

Horizontal Profiles

Position Reports

Time Latitude Longitude Heading Altitude Ground
Speed
22-Oct-20 15:52 33.437264 -112.002475 90 1134ft 0kts
22-Oct-20 15:53 33.437264 -112.002475 90 1134ft 0kts
22-Oct-20 15:54 33.437264 -112.002475 90 1134ft 0kts
22-Oct-20 15:54 33.437264 -112.002475 90 1134ft 0kts
22-Oct-20 15:56 33.437264 -112.002475 90 1134ft 0kts
22-Oct-20 15:57 33.437264 -112.002475 90 1134ft 0kts
22-Oct-20 15:58 33.437264 -112.002475 90 1134ft 0kts
22-Oct-20 15:59 33.437264 -112.002475 90 1134ft 0kts
22-Oct-20 15:59 33.437264 -112.002475 90 1134ft 0kts
22-Oct-20 16:01 33.437264 -112.002475 90 1134ft 0kts
22-Oct-20 16:01 33.437264 -112.002475 90 1134ft 0kts
22-Oct-20 16:03 33.437264 -112.002475 90 1134ft 0kts
22-Oct-20 16:03 33.437264 -112.002475 90 1134ft 0kts
22-Oct-20 16:05 33.437264 -112.002475 90 1134ft 0kts
22-Oct-20 16:05 33.437264 -112.002475 90 1134ft 0kts
22-Oct-20 16:06 33.437264 -112.002475 90 1134ft 0kts
22-Oct-20 16:07 33.437264 -112.002475 90 1134ft 0kts
22-Oct-20 16:08 33.437264 -112.002475 90 1134ft 0kts
22-Oct-20 16:09 33.437264 -112.002475 90 1134ft 0kts
22-Oct-20 16:10 33.437264 -112.002475 90 1134ft 0kts
22-Oct-20 16:11 33.437264 -112.002475 90 1134ft 0kts
22-Oct-20 16:12 33.437264 -112.002475 90 1134ft 0kts
22-Oct-20 16:13 33.437264 -112.002475 90 1134ft 0kts
22-Oct-20 16:14 33.437264 -112.002475 90 1134ft 0kts
22-Oct-20 16:15 33.437264 -112.002475 90 1134ft 0kts
22-Oct-20 16:16 33.437264 -112.002475 90 1134ft 0kts
22-Oct-20 16:17 33.437264 -112.002475 90 1134ft 0kts
22-Oct-20 16:18 33.437264 -112.002475 90 1134ft 0kts
22-Oct-20 16:19 33.437210 -112.002750 59 1134ft 2kts
22-Oct-20 16:20 33.436696 -112.003030 357 1134ft 1kts
22-Oct-20 16:21 33.436661 -112.003028 358 1134ft 0kts
22-Oct-20 16:22 33.436661 -112.003028 358 1134ft 0kts
22-Oct-20 16:23 33.436661 -112.003028 358 1134ft 0kts
22-Oct-20 16:24 33.436661 -112.003028 358 1134ft 0kts
22-Oct-20 16:25 33.436661 -112.003028 358 1134ft 0kts
22-Oct-20 16:26 33.436661 -112.003028 358 1134ft 0kts
22-Oct-20 16:27 33.436661 -112.003028 358 1134ft 0kts
22-Oct-20 16:28 33.436661 -112.003028 358 1134ft 0kts
22-Oct-20 16:29 33.436661 -112.003028 358 1134ft 0kts
22-Oct-20 16:30 33.438293 -112.003044 0 1135ft 0kts
22-Oct-20 16:31 33.438293 -112.003044 0 1135ft 0kts
22-Oct-20 16:32 33.438293 -112.003044 0 1135ft 0kts
22-Oct-20 16:33 33.439626 -112.003668 53 1135ft 9kts
22-Oct-20 16:34 33.439735 -111.998996 89 1137ft 18kts
22-Oct-20 16:35 33.439729 -111.991896 90 1138ft 17kts
22-Oct-20 16:36 33.439818 -111.990995 352 1139ft 0kts
22-Oct-20 16:37 33.439818 -111.990995 352 1139ft 0kts
22-Oct-20 16:38 33.440815 -111.991980 274 1140ft 14kts
22-Oct-20 16:39 33.440817 -111.997152 269 1138ft 81kts
22-Oct-20 16:40 33.442093 -112.051909 273 2492ft 190kts
22-Oct-20 16:41 33.448784 -112.125936 276 4369ft 259kts
22-Oct-20 16:42 33.481045 -112.204217 332 7179ft 273kts
22-Oct-20 16:43 33.558800 -112.196575 15 9096ft 303kts
22-Oct-20 16:44 33.637195 -112.170098 11 11192ft 313kts
22-Oct-20 16:45 33.728421 -112.144708 11 12251ft 361kts
22-Oct-20 16:46 33.829421 -112.116423 11 14792ft 372kts
22-Oct-20 16:47 33.928983 -112.082903 32 17046ft 383kts
22-Oct-20 16:48 33.978250 -111.968357 69 18923ft 401kts
22-Oct-20 16:49 34.010726 -111.838073 78 20559ft 414kts
22-Oct-20 16:50 34.021709 -111.697731 83 22043ft 426kts
22-Oct-20 16:51 34.031147 -111.553937 83 23419ft 435kts
22-Oct-20 16:52 34.040623 -111.407315 83 24688ft 442kts
22-Oct-20 16:53 34.054574 -111.258923 80 25839ft 447kts
22-Oct-20 16:54 34.070247 -111.109361 80 26873ft 453kts
22-Oct-20 16:55 34.089323 -110.958974 73 27880ft 453kts
22-Oct-20 16:56 34.120234 -110.811211 71 28817ft 457kts
22-Oct-20 16:57 34.150889 -110.661241 71 29641ft 463kts
22-Oct-20 16:58 34.180767 -110.509558 71 30397ft 468kts
22-Oct-20 16:59 34.210832 -110.355474 71 31062ft 473kts
22-Oct-20 17:00 34.241709 -110.198194 71 31125ft 491kts
22-Oct-20 17:01 34.273913 -110.035213 71 31103ft 508kts
22-Oct-20 17:02 34.307893 -109.866630 71 31081ft 521kts
22-Oct-20 17:03 34.343204 -109.695885 71 31083ft 525kts
22-Oct-20 17:04 34.364062 -109.519998 80 31082ft 532kts
22-Oct-20 17:05 34.380835 -109.341803 81 31082ft 534kts
22-Oct-20 17:06 34.408864 -109.167131 58 31080ft 525kts
22-Oct-20 17:07 34.526179 -109.079626 12 31104ft 507kts
22-Oct-20 17:08 34.662841 -109.038208 17 31107ft 511kts
22-Oct-20 17:09 34.796899 -108.977897 18 31118ft 516kts
22-Oct-20 17:10 34.932035 -108.917313 17 31119ft 519kts
22-Oct-20 17:11 35.068892 -108.861879 16 31119ft 522kts
22-Oct-20 17:12 35.207029 -108.806668 16 31119ft 524kts
22-Oct-20 17:13 35.345473 -108.751554 16 31119ft 526kts
22-Oct-20 17:14 35.484733 -108.696562 16 31118ft 528kts
22-Oct-20 17:15 35.624818 -108.641607 16 31119ft 530kts
22-Oct-20 17:16 35.765385 -108.586917 16 31119ft 532kts
22-Oct-20 17:17 35.906809 -108.532237 16 31093ft 535kts
22-Oct-20 17:18 36.048950 -108.477468 16 31038ft 537kts
22-Oct-20 17:19 36.186007 -108.405839 25 31046ft 538kts
22-Oct-20 17:20 36.320470 -108.324532 25 31045ft 538kts
22-Oct-20 17:21 36.454718 -108.243183 25 31045ft 539kts
22-Oct-20 17:22 36.589240 -108.161142 25 31038ft 539kts
22-Oct-20 17:23 36.723482 -108.078534 25 31061ft 539kts
22-Oct-20 17:24 36.850974 -107.981434 32 31084ft 539kts
22-Oct-20 17:25 36.978373 -107.882986 30 31082ft 541kts
22-Oct-20 17:26 37.103889 -107.778717 36 31081ft 543kts
22-Oct-20 17:27 37.221657 -107.659469 37 31117ft 544kts
22-Oct-20 17:28 37.338488 -107.539332 37 31140ft 545kts
22-Oct-20 17:29 37.455601 -107.418295 37 31137ft 546kts
22-Oct-20 17:30 37.573730 -107.299029 37 31136ft 545kts
22-Oct-20 17:31 37.692694 -107.179809 36 31137ft 545kts
22-Oct-20 17:32 37.811665 -107.061284 35 31153ft 545kts
22-Oct-20 17:34 37.933108 -106.947153 34 31152ft 546kts
22-Oct-20 17:35 38.054838 -106.832366 34 31073ft 549kts
22-Oct-20 17:36 38.177060 -106.715295 34 31053ft 551kts
22-Oct-20 17:37 38.299016 -106.598446 34 31089ft 551kts
22-Oct-20 17:38 38.421702 -106.480866 34 31175ft 551kts
22-Oct-20 17:39 38.543730 -106.363788 34 31164ft 552kts
22-Oct-20 17:40 38.667120 -106.245236 34 31164ft 553kts
22-Oct-20 17:41 38.771600 -106.102432 53 31166ft 557kts
22-Oct-20 17:42 38.857092 -105.939215 55 30791ft 535kts
22-Oct-20 17:43 38.939559 -105.786574 52 29021ft 508kts
22-Oct-20 17:44 39.022659 -105.645132 50 27213ft 485kts
22-Oct-20 17:45 39.105167 -105.510812 48 25191ft 471kts
22-Oct-20 17:46 39.189972 -105.386101 43 23280ft 455kts
22-Oct-20 17:47 39.273307 -105.270122 44 19848ft 431kts
22-Oct-20 17:48 39.351626 -105.160399 44 16440ft 405kts
22-Oct-20 17:49 39.420071 -105.050932 59 13401ft 376kts
22-Oct-20 17:50 39.460945 -104.947744 60 13231ft 268kts
22-Oct-20 17:51 39.491766 -104.866754 61 11100ft 275kts
22-Oct-20 17:52 39.526864 -104.779687 60 8756ft 271kts
22-Oct-20 17:52 39.558153 -104.714386 36 8011ft 249kts
22-Oct-20 17:54 39.625559 -104.666176 8 7986ft 222kts
22-Oct-20 17:54 39.674796 -104.660406 354 7992ft 206kts
22-Oct-20 17:56 39.733607 -104.660573 2 7352ft 162kts
22-Oct-20 17:56 39.769268 -104.663302 0 6838ft 142kts
22-Oct-20 17:57 39.805964 -104.661283 4 5855ft 142kts
22-Oct-20 17:58 39.840915 -104.660394 1 5446ft 78kts
22-Oct-20 17:59 39.850011 -104.662273 334 5446ft 12kts
22-Oct-20 18:00 39.852221 -104.662413 7 5446ft 9kts

Navigation Log

Ident Type
Flight plan parsing failed, navigation log unavailable